createdAt,value
2017-02-11T00:00:53.345Z,1022.38
2017-02-11T00:02:04.911Z,1022.42
2017-02-11T00:03:15.629Z,1022.39
2017-02-11T00:04:24.632Z,1022.39
2017-02-11T00:05:35.272Z,1022.39
2017-02-11T00:06:44.946Z,1022.39
2017-02-11T00:07:54.835Z,1022.43
2017-02-11T00:09:07.434Z,1022.5
2017-02-11T00:10:19.444Z,1022.42
2017-02-11T00:11:29.994Z,1022.43
2017-02-11T00:12:40.029Z,1022.45
2017-02-11T00:13:51.101Z,1022.46
2017-02-11T00:15:02.689Z,1022.43
2017-02-11T00:16:14.528Z,1022.42
2017-02-11T00:17:24.411Z,1022.47
2017-02-11T00:18:34.091Z,1022.45
2017-02-11T00:19:43.240Z,1022.44
2017-02-11T00:20:53.189Z,1022.49
2017-02-11T00:22:03.302Z,1022.45
2017-02-11T00:23:13.253Z,1022.43
2017-02-11T00:24:22.896Z,1022.41
2017-02-11T00:25:33.169Z,1022.43
2017-02-11T00:26:42.779Z,1022.42
2017-02-11T00:27:53.004Z,1022.46
2017-02-11T00:29:03.168Z,1022.47
2017-02-11T00:30:12.459Z,1022.47
2017-02-11T00:31:22.987Z,1022.51
2017-02-11T00:32:32.779Z,1022.52
2017-02-11T00:33:42.526Z,1022.43
2017-02-11T00:34:52.695Z,1022.46
2017-02-11T00:36:03.505Z,1022.5
2017-02-11T00:37:12.452Z,1022.52
2017-02-11T00:38:21.707Z,1022.47
2017-02-11T00:39:34.206Z,1022.5
2017-02-11T00:40:45.528Z,1022.49
2017-02-11T00:41:56.843Z,1022.48
2017-02-11T00:43:06.460Z,1022.41
2017-02-11T00:44:17.658Z,1022.43
2017-02-11T00:45:26.606Z,1022.48
2017-02-11T00:46:35.640Z,1022.47
2017-02-11T00:47:44.585Z,1022.47
2017-02-11T00:48:54.864Z,1022.48
2017-02-11T00:50:04.839Z,1022.47
2017-02-11T00:51:18.181Z,1022.43
2017-02-11T00:52:29.518Z,1022.41
2017-02-11T00:53:39.339Z,1022.44
2017-02-11T00:54:49.950Z,1022.45
2017-02-11T00:56:00.940Z,1022.39
2017-02-11T00:57:12.634Z,1022.41
2017-02-11T00:58:23.528Z,1022.37
2017-02-11T00:59:34.609Z,1022.39
2017-02-11T01:00:46.573Z,1022.37
2017-02-11T01:01:58.631Z,1022.38
2017-02-11T01:03:08.633Z,1022.34
2017-02-11T01:04:21.204Z,1022.36
2017-02-11T01:05:33.978Z,1022.38
2017-02-11T01:06:49.857Z,1022.36
2017-02-11T01:08:01.701Z,1022.38
2017-02-11T01:09:13.719Z,1022.42
2017-02-11T01:10:27.963Z,1022.39
2017-02-11T01:11:38.887Z,1022.4
2017-02-11T01:12:50.027Z,1022.4
2017-02-11T01:14:00.506Z,1022.37
2017-02-11T01:15:11.547Z,1022.4
2017-02-11T01:16:22.426Z,1022.4
2017-02-11T01:17:33.663Z,1022.42
2017-02-11T01:18:43.834Z,1022.43
2017-02-11T01:19:55.707Z,1022.46
2017-02-11T01:21:06.136Z,1022.45
2017-02-11T01:22:17.117Z,1022.4
2017-02-11T01:23:28.470Z,1022.41
2017-02-11T01:24:37.417Z,1022.42
2017-02-11T01:25:46.450Z,1022.39
2017-02-11T01:26:55.809Z,1022.35
2017-02-11T01:28:04.757Z,1022.32
2017-02-11T01:29:13.703Z,1022.25
2017-02-11T01:30:22.744Z,1022.25
2017-02-11T01:31:31.687Z,1022.27
2017-02-11T01:32:41.045Z,1022.25
2017-02-11T01:33:49.990Z,1022.25
2017-02-11T01:34:58.943Z,1022.13
2017-02-11T01:36:07.886Z,1022.14
2017-02-11T01:37:16.859Z,1022.13
2017-02-11T01:38:25.809Z,1022.12
2017-02-11T01:39:34.848Z,1022.07
2017-02-11T01:40:43.793Z,1022.06
2017-02-11T01:41:52.822Z,1022.07
2017-02-11T01:43:01.767Z,1022.09
2017-02-11T01:44:10.714Z,1022.08
2017-02-11T01:45:19.661Z,1022.07
2017-02-11T01:46:28.611Z,1022.03
2017-02-11T01:47:37.557Z,1022.08
2017-02-11T01:48:46.502Z,1022.05
2017-02-11T01:49:55.855Z,1022.04
2017-02-11T01:51:04.815Z,1022.02
2017-02-11T01:52:14.166Z,1022
2017-02-11T01:53:23.199Z,1022.01
2017-02-11T01:54:32.146Z,1022.09
2017-02-11T01:55:41.088Z,1022.07
2017-02-11T01:56:50.033Z,1022.07
2017-02-11T01:57:58.979Z,1022.06
2017-02-11T01:59:08.419Z,1022.01
2017-02-11T02:00:17.365Z,1022.01
2017-02-11T02:01:26.314Z,1022.08
2017-02-11T02:02:35.259Z,1022.03
2017-02-11T02:03:44.210Z,1022.03
2017-02-11T02:04:53.158Z,1022.05
2017-02-11T02:06:02.192Z,1022.04
2017-02-11T02:07:11.223Z,1022.06
2017-02-11T02:08:20.172Z,1022.04
2017-02-11T02:09:29.116Z,1022.07
2017-02-11T02:10:38.058Z,1022.06
2017-02-11T02:11:47.096Z,1022.04
2017-02-11T02:12:56.040Z,1022.08
2017-02-11T02:14:04.984Z,1022.02
2017-02-11T02:15:13.927Z,1022.03
2017-02-11T02:16:22.966Z,1022.06
2017-02-11T02:17:31.999Z,1022.09
2017-02-11T02:18:41.355Z,1022.09
2017-02-11T02:19:50.313Z,1022.12
2017-02-11T02:20:59.258Z,1022.11
2017-02-11T02:22:08.207Z,1022.06
2017-02-11T02:23:17.562Z,1022.08
2017-02-11T02:24:26.510Z,1022.07
2017-02-11T02:25:35.479Z,1022.13
2017-02-11T02:26:44.453Z,1022.09
2017-02-11T02:27:53.501Z,1022.12
2017-02-11T02:29:02.451Z,1022.07
2017-02-11T02:30:11.419Z,1022.06
2017-02-11T02:31:20.369Z,1022.08
2017-02-11T02:32:29.319Z,1022.09
2017-02-11T02:33:38.271Z,1022.08
2017-02-11T02:34:47.222Z,1022.12
2017-02-11T02:35:56.179Z,1022.13
2017-02-11T02:37:05.129Z,1022.1
2017-02-11T02:38:14.164Z,1022.09
2017-02-11T02:39:23.111Z,1022.12
2017-02-11T02:40:32.463Z,1022.05
2017-02-11T02:41:41.404Z,1022.1
2017-02-11T02:42:50.762Z,1022.11
2017-02-11T02:44:00.217Z,1022.07
2017-02-11T02:45:09.174Z,1022.07
2017-02-11T02:46:18.120Z,1022.1
2017-02-11T02:47:27.069Z,1022.08
2017-02-11T02:48:36.020Z,1022.12
2017-02-11T02:49:44.975Z,1022.18
2017-02-11T02:50:54.008Z,1022.18
2017-02-11T02:52:03.050Z,1022.2
2017-02-11T02:53:11.995Z,1022.16
2017-02-11T02:54:20.946Z,1022.19
2017-02-11T02:55:29.897Z,1022.13
2017-02-11T02:56:38.845Z,1022.09
2017-02-11T02:57:47.801Z,1022.12
2017-02-11T02:58:56.839Z,1022.11
2017-02-11T03:00:06.196Z,1022.13
2017-02-11T03:01:15.145Z,1022.09
2017-02-11T03:02:24.092Z,1022.06
2017-02-11T03:03:33.042Z,1022.08
2017-02-11T03:04:41.993Z,1022.1
2017-02-11T03:05:51.028Z,1022.13
2017-02-11T03:07:00.006Z,1022.06
2017-02-11T03:08:09.050Z,1022.14
2017-02-11T03:09:18.002Z,1022.13
2017-02-11T03:10:26.982Z,1022.08
2017-02-11T03:11:35.932Z,1022.04
2017-02-11T03:12:44.881Z,1022.13
2017-02-11T03:13:54.328Z,1022.13
2017-02-11T03:15:03.283Z,1022.14
2017-02-11T03:16:12.229Z,1022.08
2017-02-11T03:17:21.266Z,1022.09
2017-02-11T03:18:30.209Z,1022.08
2017-02-11T03:19:39.560Z,1022.05
2017-02-11T03:20:48.504Z,1022.03
2017-02-11T03:21:57.447Z,1022.08
2017-02-11T03:23:06.399Z,1022
2017-02-11T03:24:15.345Z,1022.07
2017-02-11T03:25:24.294Z,1022.08
2017-02-11T03:26:33.239Z,1022.12
2017-02-11T03:27:42.187Z,1022.18
2017-02-11T03:28:51.132Z,1022.19
2017-02-11T03:30:00.076Z,1022.11
2017-02-11T03:31:09.024Z,1022.13
2017-02-11T03:32:18.060Z,1022.12
2017-02-11T03:33:27.005Z,1022.03
2017-02-11T03:34:35.956Z,1022.1
2017-02-11T03:35:44.902Z,1022.1
2017-02-11T03:36:53.851Z,1022.09
2017-02-11T03:38:02.791Z,1022.06
2017-02-11T03:39:11.741Z,1022.05
2017-02-11T03:40:20.686Z,1022.06
2017-02-11T03:41:29.642Z,1022.03
2017-02-11T03:42:38.588Z,1022.1
2017-02-11T03:43:47.551Z,1022.07
2017-02-11T03:44:56.498Z,1022.11
2017-02-11T03:46:05.445Z,1022.11
2017-02-11T03:47:14.402Z,1022.09
2017-02-11T03:48:23.351Z,1022.07
2017-02-11T03:49:32.293Z,1022.11
2017-02-11T03:50:41.240Z,1022.08
2017-02-11T03:51:50.187Z,1022.09
2017-02-11T03:52:59.224Z,1022.15
2017-02-11T03:54:08.176Z,1022.13
2017-02-11T03:55:17.125Z,1022.12
2017-02-11T03:56:26.082Z,1022.14
2017-02-11T03:57:35.031Z,1022.15
2017-02-11T03:58:43.976Z,1022.11
2017-02-11T03:59:52.928Z,1022.15
2017-02-11T04:01:01.880Z,1022.15
2017-02-11T04:02:10.823Z,1022.15
2017-02-11T04:03:19.772Z,1022.14
2017-02-11T04:04:28.717Z,1022.1
2017-02-11T04:05:37.671Z,1022.16
2017-02-11T04:06:46.617Z,1022.09
2017-02-11T04:07:55.566Z,1022.09
2017-02-11T04:09:04.514Z,1022.1
2017-02-11T04:10:13.464Z,1022.11
2017-02-11T04:11:22.817Z,1022.09
2017-02-11T04:12:31.762Z,1022.14
2017-02-11T04:13:40.708Z,1022.12
2017-02-11T04:14:49.656Z,1022.11
2017-02-11T04:15:58.599Z,1022.11
2017-02-11T04:17:07.547Z,1022.11
2017-02-11T04:18:16.496Z,1022.05
2017-02-11T04:19:25.448Z,1022.07
2017-02-11T04:20:34.488Z,1022.08
2017-02-11T04:21:43.841Z,1022.05
2017-02-11T04:22:52.785Z,1022.09
2017-02-11T04:24:01.735Z,1022.09
2017-02-11T04:25:10.682Z,1022.06
2017-02-11T04:26:19.624Z,1022.05
2017-02-11T04:27:28.566Z,1022.01
2017-02-11T04:28:37.510Z,1022.06
2017-02-11T04:29:46.457Z,1022.03
2017-02-11T04:30:55.404Z,1022.04
2017-02-11T04:32:04.350Z,1022.08
2017-02-11T04:33:13.396Z,1022.02
2017-02-11T04:34:22.365Z,1022.12
2017-02-11T04:35:31.360Z,1022.07
2017-02-11T04:36:40.306Z,1022.06
2017-02-11T04:37:49.254Z,1022.07
2017-02-11T04:38:58.287Z,1022.08
2017-02-11T04:40:07.236Z,1022.07
2017-02-11T04:41:16.180Z,1022.11
2017-02-11T04:42:25.217Z,1022.14
2017-02-11T04:43:34.169Z,1022.14
2017-02-11T04:44:43.121Z,1022.05
2017-02-11T04:45:52.070Z,1022
2017-02-11T04:47:01.106Z,1022.03
2017-02-11T04:48:10.058Z,1022.06
2017-02-11T04:49:19.009Z,1022.08
2017-02-11T04:50:28.050Z,1022.06
2017-02-11T04:51:36.995Z,1022.05
2017-02-11T04:52:45.979Z,1022.03
2017-02-11T04:53:55.744Z,1022.03
2017-02-11T04:55:04.694Z,1022.04
2017-02-11T04:56:14.180Z,1022.02
2017-02-11T04:57:23.134Z,1022.04
2017-02-11T04:58:32.086Z,1021.94
2017-02-11T04:59:41.035Z,1021.95
2017-02-11T05:00:50.103Z,1021.93
2017-02-11T05:01:59.050Z,1021.94
2017-02-11T05:03:08.404Z,1021.93
2017-02-11T05:04:17.348Z,1021.92
2017-02-11T05:05:26.302Z,1021.92
2017-02-11T05:06:35.654Z,1021.96
2017-02-11T05:07:44.603Z,1021.97
2017-02-11T05:08:53.548Z,1021.99
2017-02-11T05:10:02.493Z,1021.95
2017-02-11T05:11:11.442Z,1022.01
2017-02-11T05:12:20.388Z,1022.03
2017-02-11T05:13:29.337Z,1021.97
2017-02-11T05:14:38.707Z,1021.98
2017-02-11T05:15:47.652Z,1021.97
2017-02-11T05:16:56.595Z,1021.97
2017-02-11T05:18:05.543Z,1021.97
2017-02-11T05:19:14.665Z,1021.98
2017-02-11T05:20:23.618Z,1022.01
2017-02-11T05:21:32.563Z,1021.96
2017-02-11T05:22:41.508Z,1021.96
2017-02-11T05:23:50.454Z,1021.97
2017-02-11T05:24:59.402Z,1021.96
2017-02-11T05:26:08.443Z,1021.89
2017-02-11T05:27:17.479Z,1021.92
2017-02-11T05:28:26.426Z,1021.96
2017-02-11T05:29:35.373Z,1021.98
2017-02-11T05:30:44.322Z,1022
2017-02-11T05:31:53.369Z,1022.05
2017-02-11T05:33:02.370Z,1022.02
2017-02-11T05:34:11.320Z,1022.05
2017-02-11T05:35:20.266Z,1022.04
2017-02-11T05:36:29.216Z,1022.03
2017-02-11T05:37:38.159Z,1022.07
2017-02-11T05:38:47.104Z,1022.03
2017-02-11T05:39:56.050Z,1022.07
2017-02-11T05:41:05.031Z,1022.09
2017-02-11T05:42:14.071Z,1022.07
2017-02-11T05:43:23.020Z,1022.1
2017-02-11T05:44:31.973Z,1022.07
2017-02-11T05:45:40.920Z,1022.09
2017-02-11T05:46:49.896Z,1022.07
2017-02-11T05:47:59.019Z,1022.15
2017-02-11T05:49:07.967Z,1022.08
2017-02-11T05:50:16.912Z,1022.08
2017-02-11T05:51:26.287Z,1022.04
2017-02-11T05:52:35.237Z,1022.06
2017-02-11T05:53:44.184Z,1022.05
2017-02-11T05:54:53.133Z,1022.08
2017-02-11T05:56:02.178Z,1022.1
2017-02-11T05:57:11.221Z,1022.08
2017-02-11T05:58:20.260Z,1022.12
2017-02-11T05:59:29.213Z,1022.1
2017-02-11T06:00:38.157Z,1022.15
2017-02-11T06:01:47.104Z,1022.13
2017-02-11T06:02:56.049Z,1022.15
2017-02-11T06:04:04.996Z,1022.12
2017-02-11T06:05:13.942Z,1022.1
2017-02-11T06:06:22.891Z,1022.11
2017-02-11T06:07:32.241Z,1022.18
2017-02-11T06:08:41.188Z,1022.16
2017-02-11T06:09:50.231Z,1022.21
2017-02-11T06:10:59.175Z,1022.22
2017-02-11T06:12:08.211Z,1022.25
2017-02-11T06:13:17.154Z,1022.26
2017-02-11T06:14:26.107Z,1022.25
2017-02-11T06:15:35.144Z,1022.22
2017-02-11T06:16:44.091Z,1022.21
2017-02-11T06:17:53.455Z,1022.21
2017-02-11T06:19:02.404Z,1022.18
2017-02-11T06:20:11.437Z,1022.23
2017-02-11T06:21:20.389Z,1022.2
2017-02-11T06:22:29.338Z,1022.26
2017-02-11T06:23:38.289Z,1022.22
2017-02-11T06:24:47.240Z,1022.24
2017-02-11T06:25:56.194Z,1022.24
2017-02-11T06:27:05.141Z,1022.24
2017-02-11T06:28:14.182Z,1022.28
2017-02-11T06:29:23.131Z,1022.27
2017-02-11T06:30:32.080Z,1022.26
2017-02-11T06:31:41.026Z,1022.27
2017-02-11T06:32:49.969Z,1022.28
2017-02-11T06:33:59.009Z,1022.31
2017-02-11T06:35:07.952Z,1022.33
2017-02-11T06:36:16.897Z,1022.37
2017-02-11T06:37:25.845Z,1022.37
2017-02-11T06:38:34.795Z,1022.41
2017-02-11T06:39:43.830Z,1022.4
2017-02-11T06:40:52.777Z,1022.41
2017-02-11T06:42:01.727Z,1022.4
2017-02-11T06:43:11.079Z,1022.46
2017-02-11T06:44:20.120Z,1022.44
2017-02-11T06:45:29.155Z,1022.47
2017-02-11T06:46:38.099Z,1022.51
2017-02-11T06:47:47.048Z,1022.51
2017-02-11T06:48:56.032Z,1022.49
2017-02-11T06:50:05.065Z,1022.47
2017-02-11T06:51:14.013Z,1022.48
2017-02-11T06:52:22.962Z,1022.48
2017-02-11T06:53:31.905Z,1022.47
2017-02-11T06:54:40.849Z,1022.52
2017-02-11T06:55:49.801Z,1022.48
2017-02-11T06:56:58.748Z,1022.52
2017-02-11T06:58:07.697Z,1022.54
2017-02-11T06:59:16.644Z,1022.5
2017-02-11T07:00:25.589Z,1022.47
2017-02-11T07:01:34.538Z,1022.49
2017-02-11T07:02:43.914Z,1022.57
2017-02-11T07:03:52.882Z,1022.47
2017-02-11T07:05:02.247Z,1022.53
2017-02-11T07:06:11.202Z,1022.61
2017-02-11T07:07:20.242Z,1022.48
2017-02-11T07:08:29.192Z,1022.53
2017-02-11T07:09:38.138Z,1022.47
2017-02-11T07:10:47.085Z,1022.5
2017-02-11T07:11:56.034Z,1022.48
2017-02-11T07:13:04.983Z,1022.52
2017-02-11T07:14:13.935Z,1022.51
2017-02-11T07:15:23.290Z,1022.54
2017-02-11T07:16:32.235Z,1022.53
2017-02-11T07:17:41.178Z,1022.53
2017-02-11T07:18:50.532Z,1022.53
2017-02-11T07:19:59.480Z,1022.57
2017-02-11T07:21:08.831Z,1022.58
2017-02-11T07:22:17.776Z,1022.53
2017-02-11T07:23:26.718Z,1022.62
2017-02-11T07:24:36.074Z,1022.65
2017-02-11T07:25:45.022Z,1022.55
2017-02-11T07:26:53.999Z,1022.61
2017-02-11T07:28:03.034Z,1022.66
2017-02-11T07:29:11.983Z,1022.65
2017-02-11T07:30:20.934Z,1022.65
2017-02-11T07:31:29.886Z,1022.69
2017-02-11T07:32:39.006Z,1022.67
2017-02-11T07:33:47.952Z,1022.68
2017-02-11T07:34:56.897Z,1022.7
2017-02-11T07:36:05.845Z,1022.74
2017-02-11T07:37:14.792Z,1022.71
2017-02-11T07:38:23.826Z,1022.73
2017-02-11T07:39:32.770Z,1022.73
2017-02-11T07:40:41.717Z,1022.71
2017-02-11T07:41:50.663Z,1022.74
2017-02-11T07:43:00.340Z,1022.78
2017-02-11T07:44:09.647Z,1022.78
2017-02-11T07:45:20.558Z,1022.81
2017-02-11T07:46:30.242Z,1022.85
2017-02-11T07:47:40.008Z,1022.86
2017-02-11T07:48:49.718Z,1022.79
2017-02-11T07:49:59.768Z,1022.86
2017-02-11T07:51:10.041Z,1022.82
2017-02-11T07:52:19.932Z,1022.84
2017-02-11T07:53:29.630Z,1022.88
2017-02-11T07:54:38.580Z,1022.88
2017-02-11T07:55:48.502Z,1022.76
2017-02-11T07:56:58.312Z,1022.86
2017-02-11T07:58:08.681Z,1022.86
2017-02-11T07:59:19.686Z,1022.83
2017-02-11T08:00:29.812Z,1022.83
2017-02-11T08:01:39.423Z,1022.87
2017-02-11T08:02:49.255Z,1022.87
2017-02-11T08:03:58.199Z,1022.78
2017-02-11T08:05:07.524Z,1022.91
2017-02-11T08:06:17.206Z,1022.82
2017-02-11T08:07:26.246Z,1022.84
2017-02-11T08:08:35.190Z,1022.87
2017-02-11T08:09:44.536Z,1022.82
2017-02-11T08:10:54.097Z,1022.81
2017-02-11T08:12:03.133Z,1022.8
2017-02-11T08:13:12.166Z,1022.92
2017-02-11T08:14:23.017Z,1022.91
2017-02-11T08:15:32.600Z,1022.95
2017-02-11T08:16:41.894Z,1022.87
2017-02-11T08:17:51.523Z,1022.81
2017-02-11T08:19:00.846Z,1022.86
2017-02-11T08:20:10.224Z,1022.94
2017-02-11T08:21:19.171Z,1022.91
2017-02-11T08:22:28.482Z,1022.94
2017-02-11T08:23:38.232Z,1022.86
2017-02-11T08:24:48.224Z,1022.91
2017-02-11T08:25:57.952Z,1022.87
2017-02-11T08:27:07.050Z,1022.88
2017-02-11T08:28:16.831Z,1022.85
2017-02-11T08:29:26.044Z,1022.86
2017-02-11T08:30:35.158Z,1022.87
2017-02-11T08:31:44.106Z,1022.86
2017-02-11T08:32:53.090Z,1022.88
2017-02-11T08:34:02.035Z,1022.91
2017-02-11T08:35:10.981Z,1022.86
2017-02-11T08:36:20.662Z,1022.92
2017-02-11T08:37:30.402Z,1022.8
2017-02-11T08:38:39.428Z,1022.87
2017-02-11T08:39:48.715Z,1022.81
2017-02-11T08:40:59.790Z,1022.85
2017-02-11T08:42:10.324Z,1022.81
2017-02-11T08:43:20.033Z,1022.84
2017-02-11T08:44:28.980Z,1022.84
2017-02-11T08:45:38.424Z,1022.78
2017-02-11T08:46:49.775Z,1022.84
2017-02-11T08:47:58.813Z,1022.83
2017-02-11T08:49:07.759Z,1022.87
2017-02-11T08:50:16.719Z,1022.8
2017-02-11T08:51:25.907Z,1022.87
2017-02-11T08:52:35.954Z,1022.75
2017-02-11T08:53:46.089Z,1022.79
2017-02-11T08:54:55.130Z,1022.8
2017-02-11T08:56:04.493Z,1022.81
2017-02-11T08:57:13.451Z,1022.8
2017-02-11T08:58:22.434Z,1022.77
2017-02-11T08:59:31.506Z,1022.78
2017-02-11T09:00:40.580Z,1022.74
2017-02-11T09:01:49.552Z,1022.73
2017-02-11T09:02:58.574Z,1022.76
2017-02-11T09:04:07.639Z,1022.83
2017-02-11T09:05:16.603Z,1022.78
2017-02-11T09:06:25.628Z,1022.83
2017-02-11T09:07:34.986Z,1022.74
2017-02-11T09:08:44.262Z,1022.73
2017-02-11T09:09:53.233Z,1022.76
2017-02-11T09:11:03.378Z,1022.77
2017-02-11T09:12:12.801Z,1022.78
2017-02-11T09:13:21.753Z,1022.87
2017-02-11T09:14:30.978Z,1022.83
2017-02-11T09:15:40.301Z,1022.89
2017-02-11T09:16:49.597Z,1022.89
2017-02-11T09:17:59.270Z,1022.85
2017-02-11T09:19:08.228Z,1022.88
2017-02-11T09:20:18.506Z,1022.95
2017-02-11T09:21:27.464Z,1022.91
2017-02-11T09:22:36.412Z,1022.92
2017-02-11T09:23:45.371Z,1022.91
2017-02-11T09:24:54.317Z,1022.92
2017-02-11T09:26:03.673Z,1022.94
2017-02-11T09:27:12.623Z,1022.93
2017-02-11T09:28:21.579Z,1022.97
2017-02-11T09:29:30.530Z,1022.97
2017-02-11T09:30:39.496Z,1022.96
2017-02-11T09:31:48.481Z,1022.99
2017-02-11T09:32:57.838Z,1023.06
2017-02-11T09:34:06.788Z,1023.04
2017-02-11T09:35:15.737Z,1023.05
2017-02-11T09:36:25.088Z,1023.05
2017-02-11T09:37:34.080Z,1023.07
2017-02-11T09:38:43.063Z,1023.03
2017-02-11T09:39:52.022Z,1023
2017-02-11T09:41:01.074Z,1023.06
2017-02-11T09:42:10.139Z,1022.99
2017-02-11T09:43:19.139Z,1023.06
2017-02-11T09:44:28.222Z,1023
2017-02-11T09:45:37.186Z,1023.04
2017-02-11T09:46:46.253Z,1022.93
2017-02-11T09:47:55.228Z,1023.01
2017-02-11T09:49:04.616Z,1022.94
2017-02-11T09:50:13.606Z,1023.03
2017-02-11T09:51:22.597Z,1023.01
2017-02-11T09:52:31.663Z,1023.03
2017-02-11T09:53:40.628Z,1022.99
2017-02-11T09:54:49.578Z,1023.04
2017-02-11T09:55:58.552Z,1023.04
2017-02-11T09:57:07.714Z,1023.08
2017-02-11T09:58:17.235Z,1023.06
2017-02-11T09:59:26.281Z,1023.1
2017-02-11T10:01:01.041Z,1023.03
2017-02-11T10:02:09.992Z,1023.04
2017-02-11T10:03:19.292Z,1023
2017-02-11T10:04:29.469Z,1023
2017-02-11T10:05:38.829Z,1023.04
2017-02-11T10:06:47.775Z,1023
2017-02-11T10:07:57.083Z,1023
2017-02-11T10:09:06.439Z,1023.01
2017-02-11T10:10:16.068Z,1022.94
2017-02-11T10:11:25.031Z,1022.93
2017-02-11T10:12:34.277Z,1022.99
2017-02-11T10:13:43.225Z,1022.96
2017-02-11T10:14:52.178Z,1022.92
2017-02-11T10:16:01.128Z,1022.94
2017-02-11T10:17:10.165Z,1022.9
2017-02-11T10:18:19.942Z,1022.9
2017-02-11T10:19:28.889Z,1022.9
2017-02-11T10:20:37.837Z,1022.9
2017-02-11T10:21:46.788Z,1022.89
2017-02-11T10:22:55.737Z,1022.88
2017-02-11T10:24:05.093Z,1022.89
2017-02-11T10:25:14.043Z,1022.99
2017-02-11T10:26:22.991Z,1022.93
2017-02-11T10:27:31.944Z,1022.89
2017-02-11T10:28:40.890Z,1022.95
2017-02-11T10:29:49.848Z,1022.95
2017-02-11T10:30:58.968Z,1022.95
2017-02-11T10:32:08.691Z,1022.88
2017-02-11T10:33:17.760Z,1022.91
2017-02-11T10:34:26.722Z,1022.93
2017-02-11T10:35:35.831Z,1022.92
2017-02-11T10:36:44.791Z,1022.88
2017-02-11T10:37:53.732Z,1022.89
2017-02-11T10:39:03.376Z,1022.88
2017-02-11T10:40:12.324Z,1022.82
2017-02-11T10:41:21.269Z,1022.81
2017-02-11T10:42:30.575Z,1022.82
2017-02-11T10:43:40.783Z,1022.8
2017-02-11T10:44:50.354Z,1022.76
2017-02-11T10:46:00.040Z,1022.76
2017-02-11T10:47:09.667Z,1022.77
2017-02-11T10:48:18.612Z,1022.78
2017-02-11T10:49:27.567Z,1022.77
2017-02-11T10:50:36.595Z,1022.74
2017-02-11T10:51:45.547Z,1022.75
2017-02-11T10:52:55.201Z,1022.79
2017-02-11T10:54:04.146Z,1022.74
2017-02-11T10:55:13.248Z,1022.78
2017-02-11T10:56:22.205Z,1022.77
2017-02-11T10:57:31.149Z,1022.82
2017-02-11T10:58:40.099Z,1022.82
2017-02-11T10:59:49.704Z,1022.76
2017-02-11T11:00:59.476Z,1022.81
2017-02-11T11:02:09.068Z,1022.82
2017-02-11T11:03:18.019Z,1022.74
2017-02-11T11:04:26.969Z,1022.73
2017-02-11T11:05:36.007Z,1022.73
2017-02-11T11:06:45.125Z,1022.75
2017-02-11T11:07:54.334Z,1022.66
2017-02-11T11:09:03.537Z,1022.67
2017-02-11T11:10:12.484Z,1022.72
2017-02-11T11:11:21.440Z,1022.74
2017-02-11T11:12:30.798Z,1022.69
2017-02-11T11:13:39.758Z,1022.74
2017-02-11T11:14:48.743Z,1022.66
2017-02-11T11:15:57.697Z,1022.64
2017-02-11T11:17:06.650Z,1022.68
2017-02-11T11:18:15.600Z,1022.67
2017-02-11T11:19:24.547Z,1022.69
2017-02-11T11:20:33.497Z,1022.7
2017-02-11T11:21:42.531Z,1022.71
2017-02-11T11:22:51.481Z,1022.68
2017-02-11T11:24:00.430Z,1022.69
2017-02-11T11:25:09.381Z,1022.69
2017-02-11T11:26:18.353Z,1022.71
2017-02-11T11:27:27.304Z,1022.72
2017-02-11T11:28:36.349Z,1022.7
2017-02-11T11:29:45.295Z,1022.65
2017-02-11T11:30:54.240Z,1022.69
2017-02-11T11:32:03.205Z,1022.66
2017-02-11T11:33:12.240Z,1022.67
2017-02-11T11:34:21.616Z,1022.69
2017-02-11T11:35:30.565Z,1022.7
2017-02-11T11:36:39.514Z,1022.65
2017-02-11T11:37:48.458Z,1022.61
2017-02-11T11:38:57.409Z,1022.6
2017-02-11T11:40:06.358Z,1022.6
2017-02-11T11:41:15.397Z,1022.55
2017-02-11T11:42:24.348Z,1022.6
2017-02-11T11:43:33.299Z,1022.5
2017-02-11T11:44:42.338Z,1022.53
2017-02-11T11:45:51.295Z,1022.55
2017-02-11T11:47:00.247Z,1022.48
2017-02-11T11:48:09.288Z,1022.48
2017-02-11T11:49:18.236Z,1022.5
2017-02-11T11:50:27.186Z,1022.48
2017-02-11T11:51:36.133Z,1022.54
2017-02-11T11:52:45.488Z,1022.5
2017-02-11T11:53:54.436Z,1022.49
2017-02-11T11:55:03.392Z,1022.47
2017-02-11T11:56:12.339Z,1022.49
2017-02-11T11:57:21.285Z,1022.53
2017-02-11T11:58:30.236Z,1022.51
2017-02-11T11:59:39.182Z,1022.54
2017-02-11T12:00:48.563Z,1022.52
2017-02-11T12:01:57.917Z,1022.5
2017-02-11T12:03:07.275Z,1022.55
2017-02-11T12:04:16.228Z,1022.53
2017-02-11T12:05:25.178Z,1022.51
2017-02-11T12:06:34.539Z,1022.53
2017-02-11T12:07:43.582Z,1022.5
2017-02-11T12:08:52.535Z,1022.47
2017-02-11T12:10:01.576Z,1022.47
2017-02-11T12:11:10.527Z,1022.41
2017-02-11T12:12:19.473Z,1022.48
2017-02-11T12:13:28.419Z,1022.48
2017-02-11T12:14:37.781Z,1022.46
2017-02-11T12:15:46.735Z,1022.46
2017-02-11T12:16:55.683Z,1022.51
2017-02-11T12:18:04.633Z,1022.48
2017-02-11T12:19:13.986Z,1022.46
2017-02-11T12:20:22.931Z,1022.47
2017-02-11T12:21:31.967Z,1022.49
2017-02-11T12:22:41.006Z,1022.47
2017-02-11T12:23:49.963Z,1022.47
2017-02-11T12:24:58.914Z,1022.52
2017-02-11T12:26:07.861Z,1022.46
2017-02-11T12:27:16.897Z,1022.41
2017-02-11T12:28:25.851Z,1022.44
2017-02-11T12:29:34.797Z,1022.49
2017-02-11T12:30:43.747Z,1022.44
2017-02-11T12:31:52.699Z,1022.4
2017-02-11T12:33:01.650Z,1022.4
2017-02-11T12:34:10.600Z,1022.46
2017-02-11T12:35:19.545Z,1022.46
2017-02-11T12:36:28.497Z,1022.4
2017-02-11T12:37:37.450Z,1022.38
2017-02-11T12:38:46.400Z,1022.37
2017-02-11T12:39:55.758Z,1022.37
2017-02-11T12:41:04.707Z,1022.41
2017-02-11T12:42:13.659Z,1022.42
2017-02-11T12:43:22.699Z,1022.35
2017-02-11T12:44:31.682Z,1022.31
2017-02-11T12:45:40.629Z,1022.31
2017-02-11T12:46:49.577Z,1022.31
2017-02-11T12:47:58.525Z,1022.27
2017-02-11T12:49:07.477Z,1022.29
2017-02-11T12:50:16.428Z,1022.23
2017-02-11T12:51:25.374Z,1022.29
2017-02-11T12:52:34.500Z,1022.28
2017-02-11T12:53:43.453Z,1022.33
2017-02-11T12:54:52.401Z,1022.28
2017-02-11T12:56:01.349Z,1022.28
2017-02-11T12:57:10.304Z,1022.23
2017-02-11T12:58:19.294Z,1022.24
2017-02-11T12:59:28.245Z,1022.24
2017-02-11T13:00:37.320Z,1022.24
2017-02-11T13:01:46.268Z,1022.21
2017-02-11T13:02:55.220Z,1022.22
2017-02-11T13:04:04.575Z,1022.25
2017-02-11T13:05:13.521Z,1022.24
2017-02-11T13:06:22.468Z,1022.27
2017-02-11T13:07:31.417Z,1022.25
2017-02-11T13:08:40.472Z,1022.29
2017-02-11T13:09:49.422Z,1022.29
2017-02-11T13:10:58.461Z,1022.33
2017-02-11T13:12:07.412Z,1022.37
2017-02-11T13:13:16.361Z,1022.36
2017-02-11T13:14:25.311Z,1022.32
2017-02-11T13:15:34.274Z,1022.35
2017-02-11T13:16:43.226Z,1022.36
2017-02-11T13:17:52.176Z,1022.39
2017-02-11T13:19:01.127Z,1022.37
2017-02-11T13:20:10.080Z,1022.4
2017-02-11T13:21:19.026Z,1022.38
2017-02-11T13:22:27.982Z,1022.42
2017-02-11T13:23:36.935Z,1022.34
2017-02-11T13:24:45.890Z,1022.36
2017-02-11T13:25:54.836Z,1022.42
2017-02-11T13:27:03.874Z,1022.43
2017-02-11T13:28:12.823Z,1022.45
2017-02-11T13:29:21.860Z,1022.44
2017-02-11T13:30:30.899Z,1022.41
2017-02-11T13:31:39.847Z,1022.46
2017-02-11T13:32:49.201Z,1022.41
2017-02-11T13:33:58.153Z,1022.45
2017-02-11T13:35:07.101Z,1022.43
2017-02-11T13:36:16.053Z,1022.4
2017-02-11T13:37:25.002Z,1022.42
2017-02-11T13:38:33.956Z,1022.35
2017-02-11T13:39:43.060Z,1022.3
2017-02-11T13:40:52.012Z,1022.32
2017-02-11T13:42:00.962Z,1022.28
2017-02-11T13:43:09.913Z,1022.35
2017-02-11T13:44:18.864Z,1022.31
2017-02-11T13:45:27.811Z,1022.34
2017-02-11T13:46:36.755Z,1022.33
2017-02-11T13:47:45.700Z,1022.35
2017-02-11T13:48:54.645Z,1022.27
2017-02-11T13:50:03.771Z,1022.31
2017-02-11T13:51:12.722Z,1022.27
2017-02-11T13:52:21.757Z,1022.31
2017-02-11T13:53:30.705Z,1022.34
2017-02-11T13:54:39.679Z,1022.32
2017-02-11T13:55:48.628Z,1022.35
2017-02-11T13:56:57.983Z,1022.35
2017-02-11T13:58:07.021Z,1022.33
2017-02-11T13:59:16.548Z,1022.33
2017-02-11T14:00:25.583Z,1022.35
2017-02-11T14:01:34.537Z,1022.34